sensor_id;sensor_type;location;lat;lon;timestamp;temperature;humidity
17859;DHT22;35426;30.698;104.050;2023-06-10T00:00:36;27.90;99.90
17859;DHT22;35426;30.698;104.050;2023-06-10T00:03:12;28.40;99.90
17859;DHT22;35426;30.698;104.050;2023-06-10T00:05:48;28.30;99.90
17859;DHT22;35426;30.698;104.050;2023-06-10T00:08:21;28.40;99.90
17859;DHT22;35426;30.698;104.050;2023-06-10T00:10:56;28.50;99.90
17859;DHT22;35426;30.698;104.050;2023-06-10T00:13:31;28.20;99.90
17859;DHT22;35426;30.698;104.050;2023-06-10T00:16:05;28.30;99.90
17859;DHT22;35426;30.698;104.050;2023-06-10T00:18:40;28.20;99.90
17859;DHT22;35426;30.698;104.050;2023-06-10T00:21:17;28.60;99.90
17859;DHT22;35426;30.698;104.050;2023-06-10T00:23:51;28.90;99.90
17859;DHT22;35426;30.698;104.050;2023-06-10T00:26:26;29.30;99.90
17859;DHT22;35426;30.698;104.050;2023-06-10T00:29:01;29.90;99.90
17859;DHT22;35426;30.698;104.050;2023-06-10T00:31:36;30.30;99.90
17859;DHT22;35426;30.698;104.050;2023-06-10T00:34:10;29.70;99.90
17859;DHT22;35426;30.698;104.050;2023-06-10T00:36:47;29.20;99.90
17859;DHT22;35426;30.698;104.050;2023-06-10T00:39:22;29.30;99.90
17859;DHT22;35426;30.698;104.050;2023-06-10T00:41:56;29.60;99.90
17859;DHT22;35426;30.698;104.050;2023-06-10T00:44:30;30.20;99.90
17859;DHT22;35426;30.698;104.050;2023-06-10T00:47:05;30.70;99.90
17859;DHT22;35426;30.698;104.050;2023-06-10T00:49:39;32.90;99.90
17859;DHT22;35426;30.698;104.050;2023-06-10T00:52:15;35.00;99.90
17859;DHT22;35426;30.698;104.050;2023-06-10T00:54:49;37.00;99.90
17859;DHT22;35426;30.698;104.050;2023-06-10T00:57:23;38.10;99.90
17859;DHT22;35426;30.698;104.050;2023-06-10T00:59:58;38.10;99.90
17859;DHT22;35426;30.698;104.050;2023-06-10T01:02:40;37.90;99.90
17859;DHT22;35426;30.698;104.050;2023-06-10T01:05:14;37.90;99.90
17859;DHT22;35426;30.698;104.050;2023-06-10T01:07:54;37.90;99.90
17859;DHT22;35426;30.698;104.050;2023-06-10T01:10:33;37.50;99.90
17859;DHT22;35426;30.698;104.050;2023-06-10T01:13:09;37.60;99.90
17859;DHT22;35426;30.698;104.050;2023-06-10T01:15:44;38.20;99.90
17859;DHT22;35426;30.698;104.050;2023-06-10T01:18:19;38.30;99.90
17859;DHT22;35426;30.698;104.050;2023-06-10T01:20:52;38.50;99.90
17859;DHT22;35426;30.698;104.050;2023-06-10T01:23:28;38.80;99.90
17859;DHT22;35426;30.698;104.050;2023-06-10T01:26:09;39.30;99.90
17859;DHT22;35426;30.698;104.050;2023-06-10T01:28:48;38.10;99.90
17859;DHT22;35426;30.698;104.050;2023-06-10T01:31:32;37.50;99.90
17859;DHT22;35426;30.698;104.050;2023-06-10T01:34:14;38.10;99.90
17859;DHT22;35426;30.698;104.050;2023-06-10T01:36:51;38.50;99.90
17859;DHT22;35426;30.698;104.050;2023-06-10T01:39:28;38.70;99.90
17859;DHT22;35426;30.698;104.050;2023-06-10T01:42:04;38.10;99.90
17859;DHT22;35426;30.698;104.050;2023-06-10T01:44:41;38.10;99.90
17859;DHT22;35426;30.698;104.050;2023-06-10T01:47:15;38.50;99.90
17859;DHT22;35426;30.698;104.050;2023-06-10T01:49:48;38.50;99.90
17859;DHT22;35426;30.698;104.050;2023-06-10T01:52:22;39.60;99.90
17859;DHT22;35426;30.698;104.050;2023-06-10T01:54:58;40.20;99.90
17859;DHT22;35426;30.698;104.050;2023-06-10T01:57:34;40.80;99.90
17859;DHT22;35426;30.698;104.050;2023-06-10T02:00:11;40.80;99.90
17859;DHT22;35426;30.698;104.050;2023-06-10T02:02:44;41.00;99.90
17859;DHT22;35426;30.698;104.050;2023-06-10T02:05:17;41.20;99.90
17859;DHT22;35426;30.698;104.050;2023-06-10T02:07:51;41.50;99.90
17859;DHT22;35426;30.698;104.050;2023-06-10T02:10:25;42.00;99.90
17859;DHT22;35426;30.698;104.050;2023-06-10T02:12:59;41.80;99.90
17859;DHT22;35426;30.698;104.050;2023-06-10T02:15:32;42.50;99.90
17859;DHT22;35426;30.698;104.050;2023-06-10T02:18:06;42.60;98.70
17859;DHT22;35426;30.698;104.050;2023-06-10T02:20:40;42.00;97.00
17859;DHT22;35426;30.698;104.050;2023-06-10T02:23:14;40.90;97.80
17859;DHT22;35426;30.698;104.050;2023-06-10T02:25:50;40.00;98.80
17859;DHT22;35426;30.698;104.050;2023-06-10T02:28:26;39.70;99.90
17859;DHT22;35426;30.698;104.050;2023-06-10T02:31:00;39.90;99.70
17859;DHT22;35426;30.698;104.050;2023-06-10T02:33:34;40.10;99.50
17859;DHT22;35426;30.698;104.050;2023-06-10T02:36:11;39.80;99.40
17859;DHT22;35426;30.698;104.050;2023-06-10T02:38:48;39.10;99.90
17859;DHT22;35426;30.698;104.050;2023-06-10T02:41:22;38.50;99.70
17859;DHT22;35426;30.698;104.050;2023-06-10T02:43:56;38.30;99.80
17859;DHT22;35426;30.698;104.050;2023-06-10T02:46:36;37.80;99.90
17859;DHT22;35426;30.698;104.050;2023-06-10T02:49:11;37.90;99.90
17859;DHT22;35426;30.698;104.050;2023-06-10T02:51:47;37.80;99.90
17859;DHT22;35426;30.698;104.050;2023-06-10T02:54:25;37.60;99.90
17859;DHT22;35426;30.698;104.050;2023-06-10T02:57:02;37.60;99.90
17859;DHT22;35426;30.698;104.050;2023-06-10T02:59:36;37.60;99.90
17859;DHT22;35426;30.698;104.050;2023-06-10T03:02:10;38.30;99.90
17859;DHT22;35426;30.698;104.050;2023-06-10T03:04:49;38.80;99.90
17859;DHT22;35426;30.698;104.050;2023-06-10T03:07:27;39.20;99.90
17859;DHT22;35426;30.698;104.050;2023-06-10T03:10:03;39.50;99.90
17859;DHT22;35426;30.698;104.050;2023-06-10T03:12:42;39.70;99.90
17859;DHT22;35426;30.698;104.050;2023-06-10T03:15:17;39.00;99.90
17859;DHT22;35426;30.698;104.050;2023-06-10T03:17:54;39.00;99.60
17859;DHT22;35426;30.698;104.050;2023-06-10T03:20:28;38.70;99.20
17859;DHT22;35426;30.698;104.050;2023-06-10T03:23:01;37.80;99.40
17859;DHT22;35426;30.698;104.050;2023-06-10T03:25:36;38.30;98.90
17859;DHT22;35426;30.698;104.050;2023-06-10T03:28:13;38.30;98.90
17859;DHT22;35426;30.698;104.050;2023-06-10T03:30:47;38.90;98.60
17859;DHT22;35426;30.698;104.050;2023-06-10T03:33:24;38.70;97.60
17859;DHT22;35426;30.698;104.050;2023-06-10T03:35:57;38.70;97.30
17859;DHT22;35426;30.698;104.050;2023-06-10T03:38:32;37.70;97.60
17859;DHT22;35426;30.698;104.050;2023-06-10T03:41:07;37.80;97.80
17859;DHT22;35426;30.698;104.050;2023-06-10T03:43:48;38.00;97.30
17859;DHT22;35426;30.698;104.050;2023-06-10T03:46:21;37.50;96.80
17859;DHT22;35426;30.698;104.050;2023-06-10T03:48:56;37.30;96.10
17859;DHT22;35426;30.698;104.050;2023-06-10T03:51:32;37.40;95.70
17859;DHT22;35426;30.698;104.050;2023-06-10T03:54:06;37.20;95.50
17859;DHT22;35426;30.698;104.050;2023-06-10T03:56:40;37.10;96.20
17859;DHT22;35426;30.698;104.050;2023-06-10T03:59:16;37.20;96.90
17859;DHT22;35426;30.698;104.050;2023-06-10T04:01:50;37.20;96.60
17859;DHT22;35426;30.698;104.050;2023-06-10T04:04:24;36.80;96.60
17859;DHT22;35426;30.698;104.050;2023-06-10T04:07:00;36.70;95.80
17859;DHT22;35426;30.698;104.050;2023-06-10T04:09:33;36.30;95.70
17859;DHT22;35426;30.698;104.050;2023-06-10T04:12:09;35.90;96.90
17859;DHT22;35426;30.698;104.050;2023-06-10T04:14:46;36.10;97.20
17859;DHT22;35426;30.698;104.050;2023-06-10T04:17:21;36.40;96.50
17859;DHT22;35426;30.698;104.050;2023-06-10T04:19:54;36.20;96.60
17859;DHT22;35426;30.698;104.050;2023-06-10T04:22:28;35.90;95.50
17859;DHT22;35426;30.698;104.050;2023-06-10T04:25:03;35.60;95.50
17859;DHT22;35426;30.698;104.050;2023-06-10T04:27:40;35.50;95.70
17859;DHT22;35426;30.698;104.050;2023-06-10T04:30:16;35.50;95.60
17859;DHT22;35426;30.698;104.050;2023-06-10T04:32:51;35.60;95.50
17859;DHT22;35426;30.698;104.050;2023-06-10T04:35:26;35.50;95.40
17859;DHT22;35426;30.698;104.050;2023-06-10T04:38:02;35.30;96.10
17859;DHT22;35426;30.698;104.050;2023-06-10T04:40:35;35.30;96.90
17859;DHT22;35426;30.698;104.050;2023-06-10T04:43:10;35.70;96.60
17859;DHT22;35426;30.698;104.050;2023-06-10T04:45:48;35.30;95.80
17859;DHT22;35426;30.698;104.050;2023-06-10T04:48:24;35.60;94.90
17859;DHT22;35426;30.698;104.050;2023-06-10T04:51:00;35.80;95.20
17859;DHT22;35426;30.698;104.050;2023-06-10T04:53:38;36.20;95.20
17859;DHT22;35426;30.698;104.050;2023-06-10T04:56:13;36.40;94.90
17859;DHT22;35426;30.698;104.050;2023-06-10T04:58:48;36.50;95.00
17859;DHT22;35426;30.698;104.050;2023-06-10T05:01:24;36.60;94.60
17859;DHT22;35426;30.698;104.050;2023-06-10T05:03:59;35.90;94.30
17859;DHT22;35426;30.698;104.050;2023-06-10T05:06:33;35.60;94.10
17859;DHT22;35426;30.698;104.050;2023-06-10T05:09:06;36.10;94.30
17859;DHT22;35426;30.698;104.050;2023-06-10T05:11:40;36.00;94.50
17859;DHT22;35426;30.698;104.050;2023-06-10T05:14:13;35.80;95.30
17859;DHT22;35426;30.698;104.050;2023-06-10T05:16:54;36.00;95.20
17859;DHT22;35426;30.698;104.050;2023-06-10T05:19:31;36.00;94.40
17859;DHT22;35426;30.698;104.050;2023-06-10T05:22:04;35.80;93.80
17859;DHT22;35426;30.698;104.050;2023-06-10T05:24:41;35.60;94.30
17859;DHT22;35426;30.698;104.050;2023-06-10T05:27:14;36.00;94.40
17859;DHT22;35426;30.698;104.050;2023-06-10T05:29:50;35.90;94.40
17859;DHT22;35426;30.698;104.050;2023-06-10T05:32:28;35.70;94.40
17859;DHT22;35426;30.698;104.050;2023-06-10T05:35:04;35.90;94.70
17859;DHT22;35426;30.698;104.050;2023-06-10T05:37:38;36.20;94.70
17859;DHT22;35426;30.698;104.050;2023-06-10T05:40:14;35.80;94.80
17859;DHT22;35426;30.698;104.050;2023-06-10T05:42:48;36.10;95.00
17859;DHT22;35426;30.698;104.050;2023-06-10T05:45:23;35.90;95.10
17859;DHT22;35426;30.698;104.050;2023-06-10T05:48:00;36.10;94.90
17859;DHT22;35426;30.698;104.050;2023-06-10T05:50:34;36.20;95.00
17859;DHT22;35426;30.698;104.050;2023-06-10T05:53:11;36.30;94.80
17859;DHT22;35426;30.698;104.050;2023-06-10T05:55:46;36.30;94.50
17859;DHT22;35426;30.698;104.050;2023-06-10T05:58:20;36.30;95.10
17859;DHT22;35426;30.698;104.050;2023-06-10T06:00:55;35.90;94.90
17859;DHT22;35426;30.698;104.050;2023-06-10T06:03:30;36.00;95.20
17859;DHT22;35426;30.698;104.050;2023-06-10T06:06:04;36.10;95.30
17859;DHT22;35426;30.698;104.050;2023-06-10T06:08:39;35.90;95.00
17859;DHT22;35426;30.698;104.050;2023-06-10T06:11:12;35.80;95.50
17859;DHT22;35426;30.698;104.050;2023-06-10T06:13:47;35.90;95.30
17859;DHT22;35426;30.698;104.050;2023-06-10T06:16:24;35.80;95.30
17859;DHT22;35426;30.698;104.050;2023-06-10T06:19:04;35.80;95.20
17859;DHT22;35426;30.698;104.050;2023-06-10T06:21:38;35.80;94.60
17859;DHT22;35426;30.698;104.050;2023-06-10T06:24:15;35.60;94.60
17859;DHT22;35426;30.698;104.050;2023-06-10T06:26:49;35.90;94.40
17859;DHT22;35426;30.698;104.050;2023-06-10T06:29:22;36.10;94.20
17859;DHT22;35426;30.698;104.050;2023-06-10T06:31:57;36.20;94.10
17859;DHT22;35426;30.698;104.050;2023-06-10T06:34:34;36.30;94.30
17859;DHT22;35426;30.698;104.050;2023-06-10T06:37:07;36.10;94.00
17859;DHT22;35426;30.698;104.050;2023-06-10T06:39:44;36.10;94.60
17859;DHT22;35426;30.698;104.050;2023-06-10T06:42:32;36.20;94.60
17859;DHT22;35426;30.698;104.050;2023-06-10T06:45:16;36.00;94.80
17859;DHT22;35426;30.698;104.050;2023-06-10T06:47:51;36.00;94.80
17859;DHT22;35426;30.698;104.050;2023-06-10T06:50:27;36.10;94.60
17859;DHT22;35426;30.698;104.050;2023-06-10T06:53:01;35.90;94.20
17859;DHT22;35426;30.698;104.050;2023-06-10T06:55:36;35.60;92.30
17859;DHT22;35426;30.698;104.050;2023-06-10T06:58:10;35.50;90.60
17859;DHT22;35426;30.698;104.050;2023-06-10T07:00:45;35.60;90.10
17859;DHT22;35426;30.698;104.050;2023-06-10T07:03:18;35.70;85.50
17859;DHT22;35426;30.698;104.050;2023-06-10T07:05:56;35.80;83.80
17859;DHT22;35426;30.698;104.050;2023-06-10T07:08:29;35.90;83.80
17859;DHT22;35426;30.698;104.050;2023-06-10T07:11:04;35.90;83.80
17859;DHT22;35426;30.698;104.050;2023-06-10T07:13:37;35.60;83.50
17859;DHT22;35426;30.698;104.050;2023-06-10T07:16:13;35.60;84.50
17859;DHT22;35426;30.698;104.050;2023-06-10T07:18:48;35.90;84.40
17859;DHT22;35426;30.698;104.050;2023-06-10T07:21:24;36.10;83.70
17859;DHT22;35426;30.698;104.050;2023-06-10T07:23:59;36.20;83.70
17859;DHT22;35426;30.698;104.050;2023-06-10T07:26:34;36.00;84.60
17859;DHT22;35426;30.698;104.050;2023-06-10T07:29:08;36.00;85.00
17859;DHT22;35426;30.698;104.050;2023-06-10T07:31:42;36.20;84.70
17859;DHT22;35426;30.698;104.050;2023-06-10T07:34:18;36.20;83.40
17859;DHT22;35426;30.698;104.050;2023-06-10T07:36:55;36.10;82.00
17859;DHT22;35426;30.698;104.050;2023-06-10T07:39:30;36.00;82.30
17859;DHT22;35426;30.698;104.050;2023-06-10T07:42:04;35.70;81.70
17859;DHT22;35426;30.698;104.050;2023-06-10T07:44:38;35.60;80.80
17859;DHT22;35426;30.698;104.050;2023-06-10T07:47:12;35.60;81.80
17859;DHT22;35426;30.698;104.050;2023-06-10T07:49:56;35.60;80.80
17859;DHT22;35426;30.698;104.050;2023-06-10T07:52:31;35.30;80.50
17859;DHT22;35426;30.698;104.050;2023-06-10T07:55:05;35.40;81.20
17859;DHT22;35426;30.698;104.050;2023-06-10T07:57:41;35.30;81.80
17859;DHT22;35426;30.698;104.050;2023-06-10T08:00:14;35.40;82.80
17859;DHT22;35426;30.698;104.050;2023-06-10T08:02:48;35.50;83.80
17859;DHT22;35426;30.698;104.050;2023-06-10T08:05:24;35.20;85.30
17859;DHT22;35426;30.698;104.050;2023-06-10T08:07:59;35.20;86.10
17859;DHT22;35426;30.698;104.050;2023-06-10T08:10:34;35.20;87.30
17859;DHT22;35426;30.698;104.050;2023-06-10T08:13:08;35.20;88.10
17859;DHT22;35426;30.698;104.050;2023-06-10T08:15:44;35.40;88.60
17859;DHT22;35426;30.698;104.050;2023-06-10T08:18:18;35.50;89.60
17859;DHT22;35426;30.698;104.050;2023-06-10T08:20:52;35.50;90.00
17859;DHT22;35426;30.698;104.050;2023-06-10T08:23:29;35.70;90.20
17859;DHT22;35426;30.698;104.050;2023-06-10T08:26:04;35.80;87.90
17859;DHT22;35426;30.698;104.050;2023-06-10T08:28:38;35.40;88.30
17859;DHT22;35426;30.698;104.050;2023-06-10T08:31:14;35.20;87.50
17859;DHT22;35426;30.698;104.050;2023-06-10T08:33:48;35.10;88.20
17859;DHT22;35426;30.698;104.050;2023-06-10T08:36:23;35.10;88.00
17859;DHT22;35426;30.698;104.050;2023-06-10T08:39:00;35.40;88.50
17859;DHT22;35426;30.698;104.050;2023-06-10T08:41:37;35.50;89.40
17859;DHT22;35426;30.698;104.050;2023-06-10T08:44:17;35.60;88.90
17859;DHT22;35426;30.698;104.050;2023-06-10T08:46:59;35.70;89.50
17859;DHT22;35426;30.698;104.050;2023-06-10T08:49:41;35.70;90.30
17859;DHT22;35426;30.698;104.050;2023-06-10T08:52:17;35.70;90.30
17859;DHT22;35426;30.698;104.050;2023-06-10T08:54:58;35.50;90.60
17859;DHT22;35426;30.698;104.050;2023-06-10T08:57:32;35.30;91.10
17859;DHT22;35426;30.698;104.050;2023-06-10T09:00:09;35.00;91.10
17859;DHT22;35426;30.698;104.050;2023-06-10T09:02:45;34.70;91.60
17859;DHT22;35426;30.698;104.050;2023-06-10T09:05:22;34.70;91.60
17859;DHT22;35426;30.698;104.050;2023-06-10T09:07:57;34.30;91.50
17859;DHT22;35426;30.698;104.050;2023-06-10T09:10:37;34.30;90.80
17859;DHT22;35426;30.698;104.050;2023-06-10T09:13:13;34.30;91.20
17859;DHT22;35426;30.698;104.050;2023-06-10T09:15:50;34.30;91.60
17859;DHT22;35426;30.698;104.050;2023-06-10T09:18:29;34.30;91.60
17859;DHT22;35426;30.698;104.050;2023-06-10T09:21:05;34.30;91.60
17859;DHT22;35426;30.698;104.050;2023-06-10T09:23:39;34.30;91.70
17859;DHT22;35426;30.698;104.050;2023-06-10T09:26:16;34.00;91.80
17859;DHT22;35426;30.698;104.050;2023-06-10T09:28:50;33.80;92.20
17859;DHT22;35426;30.698;104.050;2023-06-10T09:31:23;34.00;91.80
17859;DHT22;35426;30.698;104.050;2023-06-10T09:34:06;34.10;91.80
17859;DHT22;35426;30.698;104.050;2023-06-10T09:36:40;34.30;91.70
17859;DHT22;35426;30.698;104.050;2023-06-10T09:39:15;34.40;92.20
17859;DHT22;35426;30.698;104.050;2023-06-10T09:41:50;34.30;91.80
17859;DHT22;35426;30.698;104.050;2023-06-10T09:44:24;34.10;91.90
17859;DHT22;35426;30.698;104.050;2023-06-10T09:46:58;34.00;92.10
17859;DHT22;35426;30.698;104.050;2023-06-10T09:49:32;34.10;92.10
17859;DHT22;35426;30.698;104.050;2023-06-10T09:52:06;33.90;92.30
17859;DHT22;35426;30.698;104.050;2023-06-10T09:54:45;33.70;92.40
17859;DHT22;35426;30.698;104.050;2023-06-10T09:57:22;33.60;92.30
17859;DHT22;35426;30.698;104.050;2023-06-10T09:59:57;33.50;92.10
17859;DHT22;35426;30.698;104.050;2023-06-10T10:02:46;33.40;92.30
17859;DHT22;35426;30.698;104.050;2023-06-10T10:05:22;33.40;92.40
17859;DHT22;35426;30.698;104.050;2023-06-10T10:07:57;33.30;92.70
17859;DHT22;35426;30.698;104.050;2023-06-10T10:10:32;33.40;92.60
17859;DHT22;35426;30.698;104.050;2023-06-10T10:13:09;33.40;92.50
17859;DHT22;35426;30.698;104.050;2023-06-10T10:15:43;33.30;92.10
17859;DHT22;35426;30.698;104.050;2023-06-10T10:18:20;33.20;92.50
17859;DHT22;35426;30.698;104.050;2023-06-10T10:21:03;33.30;92.60
17859;DHT22;35426;30.698;104.050;2023-06-10T10:23:47;33.10;92.80
17859;DHT22;35426;30.698;104.050;2023-06-10T10:26:23;33.10;92.70
17859;DHT22;35426;30.698;104.050;2023-06-10T10:29:09;33.20;92.90
17859;DHT22;35426;30.698;104.050;2023-06-10T10:31:46;33.30;92.90
17859;DHT22;35426;30.698;104.050;2023-06-10T10:34:29;33.20;92.60
17859;DHT22;35426;30.698;104.050;2023-06-10T10:37:03;33.10;92.70
17859;DHT22;35426;30.698;104.050;2023-06-10T10:39:40;32.90;92.50
17859;DHT22;35426;30.698;104.050;2023-06-10T10:42:17;32.90;92.40
17859;DHT22;35426;30.698;104.050;2023-06-10T10:44:54;32.90;92.10
17859;DHT22;35426;30.698;104.050;2023-06-10T10:47:29;32.70;92.00
17859;DHT22;35426;30.698;104.050;2023-06-10T10:50:14;32.60;92.20
17859;DHT22;35426;30.698;104.050;2023-06-10T10:52:54;32.60;92.10
17859;DHT22;35426;30.698;104.050;2023-06-10T10:55:29;32.70;92.20
17859;DHT22;35426;30.698;104.050;2023-06-10T10:58:05;32.60;92.40
17859;DHT22;35426;30.698;104.050;2023-06-10T11:00:45;32.60;92.30
17859;DHT22;35426;30.698;104.050;2023-06-10T11:03:21;32.50;92.40
17859;DHT22;35426;30.698;104.050;2023-06-10T11:05:58;32.40;92.20
17859;DHT22;35426;30.698;104.050;2023-06-10T11:08:49;32.30;91.50
17859;DHT22;35426;30.698;104.050;2023-06-10T11:11:29;32.30;91.10
17859;DHT22;35426;30.698;104.050;2023-06-10T11:14:09;32.30;90.50
17859;DHT22;35426;30.698;104.050;2023-06-10T11:16:48;32.10;90.40
17859;DHT22;35426;30.698;104.050;2023-06-10T11:19:36;32.10;90.10
17859;DHT22;35426;30.698;104.050;2023-06-10T11:22:17;32.10;90.10
17859;DHT22;35426;30.698;104.050;2023-06-10T11:24:51;32.20;90.20
17859;DHT22;35426;30.698;104.050;2023-06-10T11:27:25;32.10;90.10
17859;DHT22;35426;30.698;104.050;2023-06-10T11:30:19;32.00;90.20
17859;DHT22;35426;30.698;104.050;2023-06-10T11:32:56;31.90;90.40
17859;DHT22;35426;30.698;104.050;2023-06-10T11:35:36;31.90;90.70
17859;DHT22;35426;30.698;104.050;2023-06-10T11:38:10;31.80;90.80
17859;DHT22;35426;30.698;104.050;2023-06-10T11:40:49;31.80;90.80
17859;DHT22;35426;30.698;104.050;2023-06-10T11:43:23;31.80;90.90
17859;DHT22;35426;30.698;104.050;2023-06-10T11:45:58;31.70;90.90
17859;DHT22;35426;30.698;104.050;2023-06-10T11:48:35;31.70;91.10
17859;DHT22;35426;30.698;104.050;2023-06-10T11:51:09;31.80;91.10
17859;DHT22;35426;30.698;104.050;2023-06-10T11:53:44;31.80;91.20
17859;DHT22;35426;30.698;104.050;2023-06-10T11:56:21;31.80;91.20
17859;DHT22;35426;30.698;104.050;2023-06-10T11:58:56;31.60;91.30
17859;DHT22;35426;30.698;104.050;2023-06-10T12:01:30;31.60;91.50
17859;DHT22;35426;30.698;104.050;2023-06-10T12:04:07;31.50;91.70
17859;DHT22;35426;30.698;104.050;2023-06-10T12:06:41;31.50;91.70
17859;DHT22;35426;30.698;104.050;2023-06-10T12:09:22;31.50;91.90
17859;DHT22;35426;30.698;104.050;2023-06-10T12:12:02;31.40;92.10
17859;DHT22;35426;30.698;104.050;2023-06-10T12:14:54;31.40;92.20
17859;DHT22;35426;30.698;104.050;2023-06-10T12:17:37;31.30;92.40
17859;DHT22;35426;30.698;104.050;2023-06-10T12:20:26;31.30;92.30
17859;DHT22;35426;30.698;104.050;2023-06-10T12:23:10;31.40;92.40
17859;DHT22;35426;30.698;104.050;2023-06-10T12:25:51;31.40;92.60
17859;DHT22;35426;30.698;104.050;2023-06-10T12:28:26;31.40;92.50
17859;DHT22;35426;30.698;104.050;2023-06-10T12:31:08;31.30;92.70
17859;DHT22;35426;30.698;104.050;2023-06-10T12:33:43;31.30;92.90
17859;DHT22;35426;30.698;104.050;2023-06-10T12:36:19;31.20;93.00
17859;DHT22;35426;30.698;104.050;2023-06-10T12:38:54;31.20;93.10
17859;DHT22;35426;30.698;104.050;2023-06-10T12:41:38;31.20;93.20
17859;DHT22;35426;30.698;104.050;2023-06-10T12:44:11;31.10;93.20
17859;DHT22;35426;30.698;104.050;2023-06-10T12:46:44;31.00;93.40
17859;DHT22;35426;30.698;104.050;2023-06-10T12:49:23;31.10;93.50
17859;DHT22;35426;30.698;104.050;2023-06-10T12:51:59;31.00;93.60
17859;DHT22;35426;30.698;104.050;2023-06-10T12:54:34;31.00;93.70
17859;DHT22;35426;30.698;104.050;2023-06-10T12:57:09;31.00;93.90
17859;DHT22;35426;30.698;104.050;2023-06-10T12:59:44;30.90;93.80
17859;DHT22;35426;30.698;104.050;2023-06-10T13:02:23;30.90;94.00
17859;DHT22;35426;30.698;104.050;2023-06-10T13:04:56;30.90;94.50
17859;DHT22;35426;30.698;104.050;2023-06-10T13:07:32;31.00;94.30
17859;DHT22;35426;30.698;104.050;2023-06-10T13:10:11;30.90;94.70
17859;DHT22;35426;30.698;104.050;2023-06-10T13:12:46;31.00;94.30
17859;DHT22;35426;30.698;104.050;2023-06-10T13:15:21;30.90;94.70
17859;DHT22;35426;30.698;104.050;2023-06-10T13:17:58;30.90;94.50
17859;DHT22;35426;30.698;104.050;2023-06-10T13:20:31;30.80;94.90
17859;DHT22;35426;30.698;104.050;2023-06-10T13:23:09;30.70;95.00
17859;DHT22;35426;30.698;104.050;2023-06-10T13:25:42;30.80;95.40
17859;DHT22;35426;30.698;104.050;2023-06-10T13:28:20;30.90;95.10
17859;DHT22;35426;30.698;104.050;2023-06-10T13:30:53;30.80;95.10
17859;DHT22;35426;30.698;104.050;2023-06-10T13:33:28;30.70;95.20
17859;DHT22;35426;30.698;104.050;2023-06-10T13:36:03;30.70;95.60
17859;DHT22;35426;30.698;104.050;2023-06-10T13:38:40;30.70;95.50
17859;DHT22;35426;30.698;104.050;2023-06-10T13:41:15;30.70;95.30
17859;DHT22;35426;30.698;104.050;2023-06-10T13:43:51;30.70;95.50
17859;DHT22;35426;30.698;104.050;2023-06-10T13:46:24;30.70;95.70
17859;DHT22;35426;30.698;104.050;2023-06-10T13:48:59;30.60;96.00
17859;DHT22;35426;30.698;104.050;2023-06-10T13:51:38;30.60;95.90
17859;DHT22;35426;30.698;104.050;2023-06-10T13:54:17;30.50;96.20
17859;DHT22;35426;30.698;104.050;2023-06-10T13:56:55;30.50;96.40
17859;DHT22;35426;30.698;104.050;2023-06-10T13:59:28;30.60;96.20
17859;DHT22;35426;30.698;104.050;2023-06-10T14:02:04;30.50;96.20
17859;DHT22;35426;30.698;104.050;2023-06-10T14:04:38;30.60;96.50
17859;DHT22;35426;30.698;104.050;2023-06-10T14:07:13;30.50;96.60
17859;DHT22;35426;30.698;104.050;2023-06-10T14:09:49;30.50;96.50
17859;DHT22;35426;30.698;104.050;2023-06-10T14:12:24;30.60;96.40
17859;DHT22;35426;30.698;104.050;2023-06-10T14:14:59;30.60;96.50
17859;DHT22;35426;30.698;104.050;2023-06-10T14:17:35;30.50;96.90
17859;DHT22;35426;30.698;104.050;2023-06-10T14:20:10;30.50;96.90
17859;DHT22;35426;30.698;104.050;2023-06-10T14:22:53;30.50;97.20
17859;DHT22;35426;30.698;104.050;2023-06-10T14:25:30;30.50;97.10
17859;DHT22;35426;30.698;104.050;2023-06-10T14:28:05;30.50;97.10
17859;DHT22;35426;30.698;104.050;2023-06-10T14:30:42;30.50;97.20
17859;DHT22;35426;30.698;104.050;2023-06-10T14:33:16;30.50;97.30
17859;DHT22;35426;30.698;104.050;2023-06-10T14:35:52;30.60;97.40
17859;DHT22;35426;30.698;104.050;2023-06-10T14:38:27;30.40;97.60
17859;DHT22;35426;30.698;104.050;2023-06-10T14:41:05;30.40;97.60
17859;DHT22;35426;30.698;104.050;2023-06-10T14:43:40;30.40;97.50
17859;DHT22;35426;30.698;104.050;2023-06-10T14:46:18;30.30;97.70
17859;DHT22;35426;30.698;104.050;2023-06-10T14:48:53;30.40;97.60
17859;DHT22;35426;30.698;104.050;2023-06-10T14:51:27;30.30;97.90
17859;DHT22;35426;30.698;104.050;2023-06-10T14:54:05;30.20;97.80
17859;DHT22;35426;30.698;104.050;2023-06-10T14:56:43;30.20;98.30
17859;DHT22;35426;30.698;104.050;2023-06-10T14:59:19;30.20;98.00
17859;DHT22;35426;30.698;104.050;2023-06-10T15:01:53;30.30;97.90
17859;DHT22;35426;30.698;104.050;2023-06-10T15:04:28;30.30;98.00
17859;DHT22;35426;30.698;104.050;2023-06-10T15:07:05;30.30;98.10
17859;DHT22;35426;30.698;104.050;2023-06-10T15:09:39;30.20;98.40
17859;DHT22;35426;30.698;104.050;2023-06-10T15:12:22;30.20;99.00
17859;DHT22;35426;30.698;104.050;2023-06-10T15:14:56;30.20;98.60
17859;DHT22;35426;30.698;104.050;2023-06-10T15:17:31;30.00;98.90
17859;DHT22;35426;30.698;104.050;2023-06-10T15:20:08;30.00;98.70
17859;DHT22;35426;30.698;104.050;2023-06-10T15:22:41;30.00;99.00
17859;DHT22;35426;30.698;104.050;2023-06-10T15:25:14;30.00;98.80
17859;DHT22;35426;30.698;104.050;2023-06-10T15:28:01;30.10;99.30
17859;DHT22;35426;30.698;104.050;2023-06-10T15:30:38;29.90;99.00
17859;DHT22;35426;30.698;104.050;2023-06-10T15:33:23;29.80;99.10
17859;DHT22;35426;30.698;104.050;2023-06-10T15:35:58;29.80;99.30
17859;DHT22;35426;30.698;104.050;2023-06-10T15:38:34;29.80;99.10
17859;DHT22;35426;30.698;104.050;2023-06-10T15:41:09;29.60;99.30
17859;DHT22;35426;30.698;104.050;2023-06-10T15:43:50;29.60;99.40
17859;DHT22;35426;30.698;104.050;2023-06-10T15:46:28;29.50;99.50
17859;DHT22;35426;30.698;104.050;2023-06-10T15:49:06;29.60;99.50
17859;DHT22;35426;30.698;104.050;2023-06-10T15:51:54;29.60;99.70
17859;DHT22;35426;30.698;104.050;2023-06-10T15:54:28;29.60;99.70
17859;DHT22;35426;30.698;104.050;2023-06-10T15:57:02;29.50;99.90